Time;durP1;ratioP1;P1;durP2;ratioP2;P2;SDS_P1;SDS_P2;PMS_P1;PMS_P2;Temp;Humidity;BMP_temperature;BMP_pressure;BME280_temperature;BME280_humidity;BME280_pressure;Samples;Min_cycle;Max_cycle;Signal;HPM_P1;HPM_P2
2023/08/03 00:00:04;;;;;;;79.80;56.50;;;27.90;99.90;;;;;;5034712;28;20032;-65
2023/08/03 00:02:34;;;;;;;72.43;48.15;;;28.00;99.90;;;;;;5034676;28;20017;-65
2023/08/03 00:05:02;;;;;;;304.42;205.75;;;27.90;99.90;;;;;;5034541;28;20112;-65
2023/08/03 00:07:29;;;;;;;120.88;86.28;;;28.00;99.90;;;;;;5034727;28;20026;-65
2023/08/03 00:09:56;;;;;;;85.88;57.30;;;28.00;99.90;;;;;;5034606;28;20021;-66
2023/08/03 00:12:22;;;;;;;74.82;50.67;;;28.00;99.90;;;;;;5034503;28;20028;-65
2023/08/03 00:14:51;;;;;;;77.30;50.83;;;28.00;99.90;;;;;;5034748;28;20057;-66
2023/08/03 00:17:17;;;;;;;64.10;50.53;;;28.10;99.90;;;;;;5034478;28;20045;-66
2023/08/03 00:19:44;;;;;;;71.45;48.70;;;28.10;99.90;;;;;;5034440;28;20025;-65
2023/08/03 00:22:10;;;;;;;99.20;61.30;;;28.20;99.90;;;;;;5034406;28;20375;-65
2023/08/03 00:24:37;;;;;;;134.55;94.20;;;28.20;99.90;;;;;;5034304;28;20092;-65
2023/08/03 00:27:04;;;;;;;118.70;82.50;;;28.30;99.90;;;;;;5034219;28;20489;-65
2023/08/03 00:29:30;;;;;;;138.02;101.03;;;28.40;99.90;;;;;;5034303;28;20044;-66
2023/08/03 00:31:59;;;;;;;88.50;64.50;;;28.40;99.90;;;;;;5034152;28;20024;-65
2023/08/03 00:34:26;;;;;;;68.40;46.20;;;28.40;99.90;;;;;;5034245;28;20048;-66
2023/08/03 00:36:52;;;;;;;59.13;46.33;;;28.40;99.90;;;;;;5033991;28;20057;-65
2023/08/03 00:39:19;;;;;;;80.22;53.00;;;28.40;99.90;;;;;;5034031;28;20382;-65
2023/08/03 00:41:46;;;;;;;73.20;49.00;;;28.30;99.90;;;;;;5033987;28;20054;-65
2023/08/03 00:44:12;;;;;;;70.88;50.10;;;28.30;99.90;;;;;;5033776;28;20033;-66
2023/08/03 00:46:39;;;;;;;71.53;49.53;;;28.30;99.90;;;;;;5033945;28;20023;-65
2023/08/03 00:49:05;;;;;;;70.35;46.95;;;28.30;99.90;;;;;;5033766;28;20096;-65
2023/08/03 00:51:32;;;;;;;60.08;44.08;;;28.40;99.90;;;;;;5033643;28;20441;-65
2023/08/03 00:53:58;;;;;;;69.07;44.47;;;28.40;99.90;;;;;;5033693;28;20053;-65
2023/08/03 00:56:25;;;;;;;64.70;43.03;;;28.50;99.90;;;;;;5033760;28;20025;-66
2023/08/03 00:58:52;;;;;;;68.28;45.85;;;28.50;99.90;;;;;;5033458;28;20033;-65
2023/08/03 01:01:20;;;;;;;65.22;45.03;;;28.50;99.90;;;;;;5033627;28;20034;-65
2023/08/03 01:03:47;;;;;;;63.88;45.55;;;28.50;99.90;;;;;;5033760;28;20092;-66
2023/08/03 01:06:16;;;;;;;57.20;42.47;;;28.50;99.90;;;;;;5033491;28;20045;-65
2023/08/03 01:08:43;;;;;;;63.08;42.95;;;28.60;99.90;;;;;;5033571;28;20048;-65
2023/08/03 01:11:09;;;;;;;62.90;41.97;;;28.60;99.90;;;;;;5033419;28;20026;-65
2023/08/03 01:13:36;;;;;;;57.35;40.83;;;28.60;99.90;;;;;;5033303;28;20129;-65
2023/08/03 01:16:03;;;;;;;52.88;37.47;;;28.70;99.90;;;;;;5033465;28;20083;-65
2023/08/03 01:18:29;;;;;;;59.45;38.30;;;28.80;99.90;;;;;;5033408;28;20057;-65
2023/08/03 01:20:57;;;;;;;56.53;38.28;;;28.90;99.90;;;;;;5033375;28;20060;-65
2023/08/03 01:23:23;;;;;;;61.25;41.05;;;28.90;99.90;;;;;;5033391;28;20029;-65
2023/08/03 01:25:50;;;;;;;63.85;40.00;;;28.90;99.90;;;;;;5033331;28;20100;-65
2023/08/03 01:28:16;;;;;;;57.83;38.38;;;28.90;99.90;;;;;;5033258;28;20021;-65
2023/08/03 01:30:43;;;;;;;60.60;38.22;;;28.90;99.90;;;;;;5033187;28;20292;-65
2023/08/03 01:33:09;;;;;;;114.72;78.30;;;28.90;99.90;;;;;;5033257;28;20525;-65
2023/08/03 01:35:36;;;;;;;71.82;49.60;;;28.90;99.90;;;;;;5033069;28;20160;-66
2023/08/03 01:38:03;;;;;;;97.03;59.22;;;29.00;99.90;;;;;;5033349;28;20026;-67
2023/08/03 01:40:29;;;;;;;86.00;65.63;;;29.00;99.90;;;;;;5033224;28;20034;-67
2023/08/03 01:42:56;;;;;;;96.25;67.40;;;29.00;99.90;;;;;;5033041;28;20029;-66
2023/08/03 01:45:22;;;;;;;60.03;42.13;;;29.10;99.90;;;;;;5033088;28;20029;-66
2023/08/03 01:47:49;;;;;;;49.58;36.33;;;29.20;99.90;;;;;;5034896;28;20025;-67
2023/08/03 01:50:15;;;;;;;63.80;39.67;;;29.30;99.90;;;;;;5036880;28;20087;-66
2023/08/03 01:52:42;;;;;;;56.03;36.22;;;29.40;99.90;;;;;;5037131;28;20020;-67
2023/08/03 01:55:09;;;;;;;52.83;35.45;;;29.50;99.90;;;;;;5037058;28;20080;-66
2023/08/03 01:57:35;;;;;;;51.10;35.05;;;29.50;99.90;;;;;;5036908;28;20026;-65
2023/08/03 02:00:03;;;;;;;43.13;30.45;;;29.40;99.90;;;;;;5037083;28;20061;-67
2023/08/03 02:02:29;;;;;;;51.00;34.42;;;29.40;99.90;;;;;;5037012;28;20025;-66
2023/08/03 02:04:56;;;;;;;53.20;32.45;;;29.50;99.90;;;;;;5036720;28;20124;-66
2023/08/03 02:07:53;;;;;;;49.33;31.73;;;29.40;99.90;;;;;;5037023;28;20068;-67
2023/08/03 02:10:22;;;;;;;69.47;44.85;;;29.50;99.90;;;;;;5036656;28;20040;-69
2023/08/03 02:12:48;;;;;;;51.40;33.95;;;29.60;99.90;;;;;;5036912;28;20116;-66
2023/08/03 02:15:15;;;;;;;55.95;33.58;;;29.60;99.90;;;;;;5036824;28;20053;-66
2023/08/03 02:17:43;;;;;;;44.53;29.08;;;29.60;99.90;;;;;;5036608;28;20037;-67
2023/08/03 02:20:10;;;;;;;45.65;29.17;;;29.60;99.90;;;;;;5036618;28;20079;-66
2023/08/03 02:22:37;;;;;;;45.28;28.42;;;29.70;99.90;;;;;;5036625;28;20025;-66
2023/08/03 02:25:04;;;;;;;47.03;28.38;;;29.70;99.90;;;;;;5035114;28;20026;-66
2023/08/03 02:27:30;;;;;;;40.58;26.90;;;29.80;99.90;;;;;;5036571;28;20026;-66
2023/08/03 02:29:57;;;;;;;40.28;26.02;;;29.80;99.90;;;;;;5036589;28;20025;-66
2023/08/03 02:32:25;;;;;;;43.45;27.73;;;29.80;99.90;;;;;;5036333;28;20025;-67
2023/08/03 02:34:52;;;;;;;48.00;27.77;;;29.80;99.90;;;;;;5036154;28;20060;-66
2023/08/03 02:37:18;;;;;;;44.33;25.08;;;29.80;99.90;;;;;;5036241;28;20061;-67
2023/08/03 02:39:45;;;;;;;64.88;42.20;;;29.80;99.90;;;;;;5036199;28;20438;-67
2023/08/03 02:42:11;;;;;;;89.65;59.45;;;29.90;99.90;;;;;;5036294;28;20032;-67
2023/08/03 02:44:38;;;;;;;117.70;77.63;;;30.00;99.90;;;;;;5036179;28;20033;-67
2023/08/03 02:47:04;;;;;;;85.63;62.15;;;30.20;99.90;;;;;;5035934;28;20033;-68
2023/08/03 02:49:31;;;;;;;586.40;503.55;;;30.20;99.90;;;;;;5036281;28;20036;-68
2023/08/03 02:51:58;;;;;;;1336.43;999.90;;;30.30;99.90;;;;;;5035972;28;20550;-68
2023/08/03 02:54:25;;;;;;;723.45;647.63;;;30.30;99.90;;;;;;5036074;28;20075;-68
2023/08/03 02:56:51;;;;;;;139.80;126.05;;;30.30;99.90;;;;;;5035904;28;20489;-69
2023/08/03 02:59:18;;;;;;;878.65;789.33;;;30.40;99.90;;;;;;5034636;28;20539;-68
2023/08/03 03:01:45;;;;;;;948.97;840.55;;;30.40;99.90;;;;;;5034260;28;20025;-68
2023/08/03 03:04:11;;;;;;;1364.43;999.90;;;30.40;99.90;;;;;;5033852;28;20029;-67
2023/08/03 03:06:38;;;;;;;600.72;538.22;;;30.40;99.90;;;;;;5033963;28;20021;-67
2023/08/03 03:09:05;;;;;;;1494.30;999.90;;;30.50;99.90;;;;;;5034648;28;20053;-68
2023/08/03 03:11:31;;;;;;;259.25;232.07;;;30.50;99.90;;;;;;5046441;28;20044;-68
2023/08/03 03:13:58;;;;;;;1681.38;999.90;;;30.70;99.90;;;;;;5054998;28;20482;-68
2023/08/03 03:16:27;;;;;;;1623.78;999.90;;;30.80;99.90;;;;;;5055213;28;20029;-70
2023/08/03 03:18:53;;;;;;;1668.25;999.90;;;30.80;99.90;;;;;;5057898;28;20293;-69
2023/08/03 03:21:20;;;;;;;1640.13;999.90;;;30.90;99.90;;;;;;5072068;28;20524;-69
2023/08/03 03:23:48;;;;;;;1616.25;999.90;;;31.00;99.90;;;;;;5075340;28;20024;-66
2023/08/03 03:26:14;;;;;;;1615.03;999.90;;;30.90;99.90;;;;;;5075151;28;20051;-66
2023/08/03 03:28:41;;;;;;;1668.22;999.90;;;31.00;99.90;;;;;;5075265;28;20082;-66
2023/08/03 03:31:08;;;;;;;1620.40;999.90;;;31.00;99.90;;;;;;5042915;28;20017;-66
2023/08/03 03:33:35;;;;;;;1614.60;999.90;;;31.10;99.90;;;;;;5035358;28;20044;-65
2023/08/03 03:36:02;;;;;;;1589.20;999.90;;;31.10;99.90;;;;;;5035481;28;20068;-66
2023/08/03 03:38:28;;;;;;;1527.18;999.90;;;31.20;99.90;;;;;;5039104;28;20025;-66
2023/08/03 03:40:55;;;;;;;1294.88;999.90;;;31.30;99.90;;;;;;5044512;28;20461;-65
2023/08/03 03:43:21;;;;;;;1609.28;999.90;;;31.30;99.90;;;;;;5045456;28;20033;-66
2023/08/03 03:45:48;;;;;;;1593.78;999.90;;;31.20;99.90;;;;;;5045085;28;20020;-66
2023/08/03 03:48:14;;;;;;;1548.80;999.90;;;31.10;99.90;;;;;;5043115;28;20029;-65
2023/08/03 03:50:41;;;;;;;1609.35;999.90;;;31.10;99.90;;;;;;5045395;28;20017;-65
2023/08/03 03:53:07;;;;;;;1503.20;999.90;;;31.10;99.90;;;;;;5043476;28;20041;-64
2023/08/03 03:55:34;;;;;;;1228.47;999.90;;;31.10;99.90;;;;;;5052209;28;20017;-66
2023/08/03 03:58:02;;;;;;;67.60;49.58;;;31.00;99.90;;;;;;5053374;28;20234;-67
2023/08/03 04:00:29;;;;;;;91.07;68.60;;;31.00;99.90;;;;;;5044858;28;20548;-67
2023/08/03 04:02:56;;;;;;;323.17;274.48;;;31.00;99.90;;;;;;5044614;28;20074;-67
2023/08/03 04:05:22;;;;;;;438.23;391.40;;;31.00;99.90;;;;;;5043064;28;20233;-66
2023/08/03 04:07:49;;;;;;;1509.05;999.90;;;31.10;99.90;;;;;;5044650;28;20462;-66
2023/08/03 04:10:15;;;;;;;872.30;787.78;;;31.20;99.90;;;;;;5044090;28;20104;-66
2023/08/03 04:12:42;;;;;;;1294.28;999.90;;;31.10;99.90;;;;;;5043104;28;20027;-68
2023/08/03 04:15:09;;;;;;;759.50;685.05;;;31.10;99.90;;;;;;5044567;28;20395;-68
2023/08/03 04:17:35;;;;;;;1184.82;999.90;;;31.10;99.90;;;;;;5044397;28;20432;-65
2023/08/03 04:20:02;;;;;;;1471.63;999.90;;;31.00;99.90;;;;;;5043296;28;20421;-65
2023/08/03 04:22:28;;;;;;;1149.07;943.13;;;31.00;99.90;;;;;;5044653;28;20024;-67
2023/08/03 04:24:55;;;;;;;126.22;112.80;;;31.00;99.90;;;;;;5044088;28;20075;-69
2023/08/03 04:27:21;;;;;;;470.70;423.30;;;31.00;99.90;;;;;;5042824;28;20036;-68
2023/08/03 04:29:48;;;;;;;99.70;89.82;;;31.00;99.90;;;;;;5044608;28;20092;-68
2023/08/03 04:32:14;;;;;;;37.00;27.45;;;31.00;99.90;;;;;;5036755;28;20048;-68
2023/08/03 04:34:41;;;;;;;36.65;26.55;;;31.00;99.90;;;;;;5033946;28;20053;-66
2023/08/03 04:37:07;;;;;;;354.88;315.65;;;30.90;99.90;;;;;;5034164;28;20112;-67
2023/08/03 04:39:34;;;;;;;1158.07;999.90;;;30.90;99.90;;;;;;5034135;28;20048;-67
2023/08/03 04:42:00;;;;;;;693.88;623.60;;;31.00;99.90;;;;;;5034191;28;20026;-67
2023/08/03 04:44:27;;;;;;;1460.40;999.90;;;31.10;99.90;;;;;;5033964;28;20029;-66
2023/08/03 04:46:54;;;;;;;1597.45;999.90;;;31.30;99.90;;;;;;5033947;28;20021;-66
2023/08/03 04:49:22;;;;;;;1582.63;999.90;;;31.40;99.90;;;;;;5042677;28;20017;-65
2023/08/03 04:51:51;;;;;;;1595.07;999.90;;;31.40;99.90;;;;;;5044006;28;20017;-66
2023/08/03 04:54:18;;;;;;;1572.10;999.90;;;31.40;99.90;;;;;;5044516;28;20029;-65
2023/08/03 04:56:44;;;;;;;626.47;492.25;;;31.40;99.90;;;;;;5043002;28;20021;-66
2023/08/03 04:59:11;;;;;;;424.55;375.15;;;31.40;99.90;;;;;;5043880;28;20032;-67
2023/08/03 05:01:37;;;;;;;213.57;165.38;;;31.40;99.90;;;;;;5044903;28;20024;-66
2023/08/03 05:04:04;;;;;;;130.73;109.85;;;31.60;99.90;;;;;;5042904;28;20028;-67
2023/08/03 05:06:31;;;;;;;360.23;259.65;;;31.70;99.90;;;;;;5044116;28;20466;-66
2023/08/03 05:08:57;;;;;;;22.88;14.35;;;31.80;99.90;;;;;;5045240;28;20385;-67
2023/08/03 05:11:25;;;;;;;24.65;13.13;;;31.90;99.90;;;;;;5042901;28;20022;-66
2023/08/03 05:13:51;;;;;;;23.20;13.93;;;31.90;99.90;;;;;;5043174;28;20020;-65
2023/08/03 05:16:24;;;;;;;199.88;132.20;;;32.10;99.90;;;;;;5044388;28;20469;-66
2023/08/03 05:18:51;;;;;;;26.40;17.58;;;32.10;99.90;;;;;;5043518;28;20025;-66
2023/08/03 05:21:18;;;;;;;124.40;104.60;;;32.30;99.90;;;;;;5042451;28;20033;-67
2023/08/03 05:23:45;;;;;;;28.20;14.10;;;32.30;99.90;;;;;;5042868;28;20032;-67
2023/08/03 05:26:12;;;;;;;27.13;13.27;;;32.40;99.90;;;;;;5046847;28;20288;-66
2023/08/03 05:28:39;;;;;;;23.63;13.07;;;32.30;99.90;;;;;;5043356;28;20049;-66
2023/08/03 05:31:06;;;;;;;22.67;13.75;;;32.30;99.90;;;;;;5043675;28;20017;-67
2023/08/03 05:33:35;;;;;;;25.42;16.10;;;32.30;99.90;;;;;;5043818;28;20037;-67
2023/08/03 05:36:02;;;;;;;21.38;14.77;;;32.40;99.90;;;;;;5042705;28;20049;-67
2023/08/03 05:38:29;;;;;;;93.07;56.35;;;32.30;99.90;;;;;;5043371;28;20051;-67
2023/08/03 05:40:55;;;;;;;68.75;46.33;;;32.30;99.90;;;;;;5043999;28;20020;-66
2023/08/03 05:43:27;;;;;;;21.60;12.40;;;32.40;99.90;;;;;;5042271;28;20018;-66
2023/08/03 05:46:00;;;;;;;16.53;11.17;;;32.50;99.90;;;;;;5042854;28;20053;-67
2023/08/03 05:48:30;;;;;;;17.77;9.98;;;32.60;99.90;;;;;;5045017;28;20022;-67
2023/08/03 05:50:57;;;;;;;21.05;12.00;;;32.80;99.90;;;;;;5043666;28;20100;-66
2023/08/03 05:53:24;;;;;;;19.10;12.65;;;33.00;99.90;;;;;;5043108;28;20095;-67
2023/08/03 05:55:51;;;;;;;20.77;11.23;;;33.10;99.90;;;;;;5042743;28;20032;-67
2023/08/03 05:58:18;;;;;;;14.00;11.43;;;33.20;99.90;;;;;;5043961;28;20066;-68
2023/08/03 06:00:49;;;;;;;18.52;11.15;;;33.20;99.90;;;;;;5042083;28;20018;-67
2023/08/03 06:03:17;;;;;;;17.17;11.67;;;33.10;99.90;;;;;;5080356;22;20063;-67
2023/08/03 06:05:46;;;;;;;15.15;10.70;;;33.10;99.90;;;;;;5082638;28;20017;-67
2023/08/03 06:08:24;;;;;;;14.93;9.93;;;33.20;99.90;;;;;;5082228;28;20017;-68
2023/08/03 06:10:53;;;;;;;21.02;10.73;;;33.20;99.90;;;;;;5083212;28;20412;-68
2023/08/03 06:13:23;;;;;;;17.23;9.35;;;33.30;99.90;;;;;;5081990;28;20036;-66
2023/08/03 06:15:49;;;;;;;21.23;9.57;;;33.40;99.90;;;;;;5082953;28;20024;-65
2023/08/03 06:18:18;;;;;;;15.38;9.57;;;33.30;99.90;;;;;;5082715;28;20159;-66
2023/08/03 06:20:47;;;;;;;16.67;9.15;;;33.30;99.90;;;;;;5081512;28;20025;-65
2023/08/03 06:23:25;;;;;;;15.27;9.50;;;33.30;99.90;;;;;;5084300;28;20028;-66
2023/08/03 06:25:55;;;;;;;12.77;8.80;;;33.30;99.90;;;;;;5084174;28;20019;-66
2023/08/03 06:28:23;;;;;;;20.10;10.38;;;33.30;99.90;;;;;;5081222;28;20032;-66
2023/08/03 06:30:51;;;;;;;13.63;8.55;;;33.50;99.90;;;;;;5082560;28;20020;-67
2023/08/03 06:33:22;;;;;;;18.85;9.73;;;33.50;99.90;;;;;;5083548;28;20027;-65
2023/08/03 06:35:52;;;;;;;18.45;9.35;;;33.50;99.90;;;;;;5086304;28;20081;-67
2023/08/03 06:38:21;;;;;;;15.05;8.55;;;33.40;99.90;;;;;;5085237;28;20027;-67
2023/08/03 06:40:48;;;;;;;21.30;8.52;;;33.50;99.90;;;;;;5086307;28;20074;-66
2023/08/03 06:43:15;;;;;;;16.92;8.65;;;33.40;99.90;;;;;;5087100;28;20009;-67
2023/08/03 06:45:43;;;;;;;17.30;9.13;;;33.30;99.90;;;;;;5085427;28;20023;-66
2023/08/03 06:48:10;;;;;;;15.00;9.00;;;33.20;99.90;;;;;;5085936;28;20031;-67
2023/08/03 06:50:37;;;;;;;14.68;8.55;;;33.10;99.90;;;;;;5086859;28;20472;-67
2023/08/03 06:53:05;;;;;;;17.88;8.70;;;33.10;99.90;;;;;;5085354;28;20029;-66
2023/08/03 06:55:32;;;;;;;16.52;7.57;;;33.00;99.90;;;;;;5085396;28;20499;-67
2023/08/03 06:57:58;;;;;;;15.27;7.75;;;33.00;99.90;;;;;;5087018;28;20016;-64
2023/08/03 07:00:26;;;;;;;13.63;7.53;;;32.90;99.90;;;;;;5085228;28;20028;-66
2023/08/03 07:02:53;;;;;;;20.33;8.70;;;32.80;99.90;;;;;;5084838;28;20051;-66
2023/08/03 07:05:20;;;;;;;12.77;8.25;;;32.80;99.90;;;;;;5087123;28;20039;-66
2023/08/03 07:07:46;;;;;;;14.65;9.32;;;32.80;99.90;;;;;;5086298;28;20090;-67
2023/08/03 07:10:13;;;;;;;24.33;10.40;;;32.90;99.90;;;;;;5085232;28;20016;-67
2023/08/03 07:12:39;;;;;;;15.70;8.70;;;33.00;99.90;;;;;;5086769;28;20031;-67
2023/08/03 07:15:06;;;;;;;16.10;7.82;;;33.00;99.90;;;;;;5085327;28;20507;-66
2023/08/03 07:17:33;;;;;;;26.48;9.77;;;33.00;99.90;;;;;;5082849;28;20049;-67
2023/08/03 07:19:59;;;;;;;31.05;11.70;;;33.10;99.90;;;;;;5086888;28;20422;-67
2023/08/03 07:22:26;;;;;;;16.08;9.90;;;33.20;99.90;;;;;;5085163;28;20082;-71
2023/08/03 07:24:52;;;;;;;20.80;11.05;;;33.30;99.90;;;;;;5084442;28;20016;-67
2023/08/03 07:27:19;;;;;;;17.70;12.10;;;33.30;99.90;;;;;;5078184;28;20028;-67
2023/08/03 07:29:46;;;;;;;22.00;12.77;;;33.30;99.90;;;;;;5084569;28;20028;-68
2023/08/03 07:32:12;;;;;;;20.52;11.48;;;33.40;99.90;;;;;;5082118;28;20023;-68
2023/08/03 07:34:39;;;;;;;42.15;26.23;;;33.50;99.90;;;;;;5065038;28;20029;-66
2023/08/03 07:37:06;;;;;;;134.73;94.70;;;33.60;99.90;;;;;;5063804;28;20032;-66
2023/08/03 07:39:33;;;;;;;28.15;17.45;;;33.70;99.90;;;;;;5065562;28;20091;-68
2023/08/03 07:41:59;;;;;;;163.35;117.47;;;33.80;99.90;;;;;;5065200;28;20104;-67
2023/08/03 07:44:26;;;;;;;23.52;11.80;;;33.90;99.90;;;;;;5063575;28;20060;-70
2023/08/03 07:46:52;;;;;;;20.75;10.77;;;33.90;99.90;;;;;;5059882;28;20098;-68
2023/08/03 07:49:20;;;;;;;22.05;12.43;;;34.00;99.90;;;;;;5055086;28;20074;-68
2023/08/03 07:51:48;;;;;;;21.45;11.20;;;34.00;99.90;;;;;;5065738;28;20033;-67
2023/08/03 07:54:16;;;;;;;25.50;10.93;;;34.00;99.90;;;;;;5064257;28;20017;-67
2023/08/03 07:56:42;;;;;;;18.30;10.90;;;34.00;99.90;;;;;;5061538;28;20048;-67
2023/08/03 07:59:10;;;;;;;18.75;10.32;;;34.10;99.90;;;;;;5066443;28;20027;-68
2023/08/03 08:01:37;;;;;;;15.38;10.25;;;34.10;99.90;;;;;;5065267;28;20045;-67
2023/08/03 08:04:04;;;;;;;23.20;12.10;;;34.00;99.90;;;;;;5063859;28;20126;-68
2023/08/03 08:06:30;;;;;;;20.75;11.32;;;33.90;99.90;;;;;;5063424;28;20065;-69
2023/08/03 08:08:57;;;;;;;18.25;10.52;;;33.80;99.90;;;;;;5062915;28;20017;-68
2023/08/03 08:11:23;;;;;;;24.55;12.07;;;33.60;99.90;;;;;;5065009;28;20047;-68
2023/08/03 08:13:50;;;;;;;21.48;11.80;;;33.60;99.90;;;;;;5063313;28;20359;-68
2023/08/03 08:16:16;;;;;;;24.42;12.82;;;33.50;99.90;;;;;;5064889;28;20027;-67
2023/08/03 08:18:43;;;;;;;108.43;70.80;;;33.40;99.90;;;;;;5064678;28;20017;-67
2023/08/03 08:21:12;;;;;;;35.15;19.70;;;33.40;99.90;;;;;;5063151;28;20032;-68
2023/08/03 08:23:39;;;;;;;19.98;12.10;;;33.30;99.90;;;;;;5064072;28;20496;-69
2023/08/03 08:26:17;;;;;;;42.78;28.40;;;33.20;99.90;;;;;;5065645;28;20067;-68
2023/08/03 08:28:46;;;;;;;30.50;15.70;;;33.10;99.90;;;;;;5066537;28;20093;-67
2023/08/03 08:31:13;;;;;;;31.30;21.10;;;33.00;99.90;;;;;;5063398;28;20074;-67
2023/08/03 08:33:40;;;;;;;55.35;38.42;;;32.90;99.90;;;;;;5063847;28;20031;-67
2023/08/03 08:36:06;;;;;;;42.45;33.90;;;32.80;99.90;;;;;;5064629;28;20394;-68
2023/08/03 08:38:33;;;;;;;38.20;27.13;;;32.70;99.90;;;;;;5064245;28;20025;-64
2023/08/03 08:41:03;;;;;;;45.05;26.77;;;32.70;99.90;;;;;;5072550;28;20038;-67
2023/08/03 08:43:30;;;;;;;27.88;18.77;;;32.70;99.90;;;;;;5075390;28;20072;-67
2023/08/03 08:45:57;;;;;;;28.35;13.10;;;32.60;99.90;;;;;;5086322;28;20107;-66
2023/08/03 08:48:23;;;;;;;30.63;13.98;;;32.60;99.90;;;;;;5086833;28;20435;-65
2023/08/03 08:50:51;;;;;;;43.38;20.55;;;32.70;99.90;;;;;;5077801;28;20054;-70
2023/08/03 08:53:17;;;;;;;85.25;55.22;;;32.50;99.90;;;;;;5068186;28;20024;-65
2023/08/03 08:55:46;;;;;;;64.30;35.58;;;32.50;99.90;;;;;;5069031;28;20024;-65
2023/08/03 08:58:13;;;;;;;35.25;22.65;;;32.40;99.90;;;;;;5076511;28;20028;-64
2023/08/03 09:00:43;;;;;;;42.17;23.77;;;32.30;99.90;;;;;;5083205;28;20039;-65
2023/08/03 09:03:10;;;;;;;51.15;28.88;;;32.30;99.90;;;;;;5064238;28;20041;-66
2023/08/03 09:05:38;;;;;;;46.97;28.65;;;32.20;99.90;;;;;;5070170;28;20103;-65
2023/08/03 09:08:07;;;;;;;38.75;21.40;;;32.10;99.90;;;;;;5070005;28;20103;-66
2023/08/03 09:10:48;;;;;;;45.60;21.98;;;32.10;99.90;;;;;;5072972;28;20504;-66
2023/08/03 09:13:35;;;;;;;97.00;56.63;;;32.10;99.90;;;;;;5064247;28;20024;-66
2023/08/03 09:16:02;;;;;;;99.28;54.65;;;32.10;99.90;;;;;;5070827;28;20260;-67
2023/08/03 09:18:31;;;;;;;66.50;36.47;;;32.20;99.90;;;;;;5069305;28;20047;-67
2023/08/03 09:21:09;;;;;;;46.55;27.13;;;32.20;99.90;;;;;;5062818;28;20025;-70
2023/08/03 09:23:36;;;;;;;44.67;22.38;;;32.30;99.90;;;;;;5068748;28;20515;-67
2023/08/03 09:26:03;;;;;;;169.18;120.30;;;32.30;99.90;;;;;;5074010;28;20381;-69
2023/08/03 09:28:39;;;;;;;94.03;60.30;;;32.30;99.90;;;;;;5076084;28;20477;-67
2023/08/03 09:31:07;;;;;;;83.55;57.15;;;32.30;99.90;;;;;;5071973;28;20037;-67
2023/08/03 09:33:34;;;;;;;121.90;87.63;;;32.30;99.90;;;;;;5080897;28;20016;-67
2023/08/03 09:36:05;;;;;;;274.13;207.48;;;32.30;99.90;;;;;;5082451;28;20123;-67
2023/08/03 09:38:32;;;;;;;803.35;682.88;;;32.30;99.90;;;;;;5077315;28;20043;-69
2023/08/03 09:40:59;;;;;;;1615.70;999.90;;;32.30;99.90;;;;;;5073846;28;20040;-70
2023/08/03 09:43:28;;;;;;;1142.82;991.00;;;32.40;99.90;;;;;;5072630;28;20080;-66
2023/08/03 09:45:56;;;;;;;1013.47;841.63;;;32.40;99.90;;;;;;5074341;28;20532;-68
2023/08/03 09:48:23;;;;;;;1383.68;999.90;;;32.40;99.90;;;;;;5072584;28;20036;-69
2023/08/03 09:50:55;;;;;;;1427.82;999.90;;;32.50;99.90;;;;;;5081602;28;20055;-67
2023/08/03 09:53:26;;;;;;;1384.15;999.90;;;32.40;99.90;;;;;;5081590;28;20035;-68
2023/08/03 09:56:05;;;;;;;428.13;384.27;;;32.40;99.90;;;;;;5075841;28;20047;-67
2023/08/03 09:58:51;;;;;;;170.45;152.88;;;32.40;99.90;;;;;;5083535;28;20028;-66
2023/08/03 10:01:23;;;;;;;35.10;15.95;;;32.40;99.90;;;;;;5087345;28;20426;-67
2023/08/03 10:03:51;;;;;;;;;;;32.40;99.90;;;;;;5087420;28;20370;-66
2023/08/03 10:06:22;;;;;;;51.72;24.70;;;32.40;99.90;;;;;;5079415;28;20276;-68
2023/08/03 10:09:04;;;;;;;36.80;20.77;;;32.30;99.90;;;;;;5077756;28;20040;-66
2023/08/03 10:11:38;;;;;;;49.97;29.65;;;32.30;99.90;;;;;;5078846;28;20115;-66
2023/08/03 10:14:06;;;;;;;78.07;50.97;;;32.30;99.90;;;;;;5084925;28;20500;-67
2023/08/03 10:16:34;;;;;;;296.30;254.50;;;32.20;99.90;;;;;;5079399;28;20028;-68
2023/08/03 10:19:02;;;;;;;187.48;161.02;;;32.20;99.90;;;;;;5079121;28;20093;-67
2023/08/03 10:21:30;;;;;;;568.35;506.85;;;32.20;99.90;;;;;;5076806;28;20520;-67
2023/08/03 10:24:18;;;;;;;1075.78;921.15;;;32.10;99.90;;;;;;5082351;28;20074;-72
2023/08/03 10:26:54;;;;;;;1482.00;999.90;;;32.00;99.90;;;;;;5086163;28;20020;-68
2023/08/03 10:29:58;;;;;;;1411.75;999.90;;;32.00;99.90;;;;;;5080599;28;20104;-66
2023/08/03 10:32:27;;;;;;;1617.90;999.90;;;32.00;99.90;;;;;;5085997;28;20026;-69
2023/08/03 10:34:58;;;;;;;1626.97;999.90;;;32.00;99.90;;;;;;5086258;28;20020;-68
2023/08/03 10:37:26;;;;;;;1612.53;999.90;;;31.90;99.90;;;;;;5086611;28;20024;-68
2023/08/03 10:39:55;;;;;;;1442.68;999.90;;;31.90;99.90;;;;;;5086396;28;20029;-70
2023/08/03 10:42:25;;;;;;;1620.05;999.90;;;31.80;99.90;;;;;;5079392;28;20472;-75
2023/08/03 10:44:52;;;;;;;1604.15;999.90;;;31.80;99.90;;;;;;5081276;28;20037;-69
2023/08/03 10:47:28;;;;;;;1663.63;999.90;;;31.80;99.90;;;;;;5084020;28;20071;-73
2023/08/03 10:49:57;;;;;;;1448.03;999.90;;;31.80;99.90;;;;;;5075619;28;20419;-73
2023/08/03 10:52:28;;;;;;;911.08;709.05;;;31.80;99.90;;;;;;5077416;28;20024;-72
2023/08/03 10:54:55;;;;;;;420.58;222.52;;;31.70;99.90;;;;;;5083140;28;20020;-71
2023/08/03 10:57:27;;;;;;;602.42;363.95;;;31.70;99.90;;;;;;5085905;28;20457;-69
2023/08/03 10:59:58;;;;;;;466.75;214.82;;;31.70;99.90;;;;;;5076811;28;20021;-69
2023/08/03 11:02:29;;;;;;;806.42;572.78;;;31.70;99.90;;;;;;5078904;28;20532;-73
2023/08/03 11:04:58;;;;;;;1630.80;999.90;;;31.70;99.90;;;;;;5085014;28;20434;-72
2023/08/03 11:07:44;;;;;;;1666.97;999.90;;;31.60;99.90;;;;;;5083230;28;20477;-69
2023/08/03 11:10:13;;;;;;;854.70;756.05;;;31.60;99.90;;;;;;5078192;28;20020;-69
2023/08/03 11:12:41;;;;;;;1376.72;999.90;;;31.50;99.90;;;;;;5082741;28;20431;-67
2023/08/03 11:15:08;;;;;;;1621.70;999.90;;;31.60;99.90;;;;;;5083596;28;20073;-68
2023/08/03 11:17:37;;;;;;;1623.53;999.90;;;31.60;99.90;;;;;;5081532;28;20522;-66
2023/08/03 11:20:07;;;;;;;1629.85;999.90;;;31.60;99.90;;;;;;5076780;28;20020;-67
2023/08/03 11:22:34;;;;;;;861.08;764.78;;;31.50;99.90;;;;;;5078965;28;20024;-66
2023/08/03 11:25:04;;;;;;;456.30;361.83;;;31.50;99.90;;;;;;5083512;28;20028;-67
2023/08/03 11:27:31;;;;;;;788.47;691.88;;;31.50;99.90;;;;;;5078898;28;20095;-68
2023/08/03 11:29:58;;;;;;;1576.10;999.90;;;31.50;99.90;;;;;;5083944;28;20077;-68
2023/08/03 11:32:28;;;;;;;1621.88;999.90;;;31.50;99.90;;;;;;5080027;28;20443;-68
2023/08/03 11:35:05;;;;;;;1424.20;999.90;;;31.40;99.90;;;;;;5086899;28;20025;-68
2023/08/03 11:37:36;;;;;;;1650.75;999.90;;;31.40;99.90;;;;;;5084924;28;20443;-70
2023/08/03 11:40:04;;;;;;;1509.05;999.90;;;31.40;99.90;;;;;;5075346;28;20025;-69
2023/08/03 11:42:31;;;;;;;1342.32;999.90;;;31.30;99.90;;;;;;5068341;28;20085;-68
2023/08/03 11:44:58;;;;;;;1475.22;999.90;;;31.40;99.90;;;;;;5073754;28;20027;-68
2023/08/03 11:47:24;;;;;;;1568.72;999.90;;;31.30;99.90;;;;;;5085430;28;20376;-68
2023/08/03 11:49:52;;;;;;;1605.70;999.90;;;31.30;99.90;;;;;;5073770;28;20017;-68
2023/08/03 11:52:21;;;;;;;996.22;789.30;;;31.30;99.90;;;;;;5109655;22;20492;-67
2023/08/03 11:54:48;;;;;;;53.70;21.83;;;31.30;99.90;;;;;;5103169;28;20042;-67
2023/08/03 12:00:03;;;;;;;1572.82;999.90;;;31.30;99.90;;;;;;5103772;28;20101;-67
2023/08/03 12:02:44;;;;;;;1447.60;999.90;;;31.30;99.90;;;;;;5105175;28;20026;-68
2023/08/03 12:05:13;;;;;;;1534.00;999.90;;;31.30;99.90;;;;;;5110950;28;20485;-70
2023/08/03 12:07:40;;;;;;;1440.65;999.90;;;31.30;99.90;;;;;;5106689;28;20460;-69
2023/08/03 12:10:15;;;;;;;1572.43;999.90;;;31.20;99.90;;;;;;5106047;28;20342;-70
2023/08/03 12:12:43;;;;;;;961.22;862.10;;;31.20;99.90;;;;;;5104964;28;20023;-66
2023/08/03 12:15:11;;;;;;;1200.68;999.90;;;31.10;99.90;;;;;;5106522;28;20020;-66
2023/08/03 12:17:38;;;;;;;733.60;658.97;;;31.10;99.90;;;;;;5107102;28;20028;-67
2023/08/03 12:20:06;;;;;;;400.73;358.77;;;31.10;99.90;;;;;;5107095;28;20094;-68
2023/08/03 12:22:33;;;;;;;76.78;61.67;;;31.10;99.90;;;;;;5106053;28;20023;-67
2023/08/03 12:25:00;;;;;;;35.67;16.98;;;31.10;99.90;;;;;;5103428;28;20023;-68